Time;durP1;ratioP1;P1;durP2;ratioP2;P2;SDS_P1;SDS_P2;PMS_P1;PMS_P2;Temp;Humidity;BMP_temperature;BMP_pressure;BME280_temperature;BME280_humidity;BME280_pressure;Samples;Min_cycle;Max_cycle;Signal;HPM_P1;HPM_P2
2022/11/16 00:04:03;;;;;;;4.63;2.70;;;11.60;99.90;;;;;;20630716;28;20043;-40
2022/11/16 00:14:05;;;;;;;6.72;3.25;;;11.60;99.90;;;;;;20604535;28;20102;-40
2022/11/16 00:24:06;;;;;;;5.07;2.45;;;11.60;99.90;;;;;;20647485;28;20422;-41
2022/11/16 00:34:07;;;;;;;5.55;3.35;;;11.60;99.90;;;;;;20639491;28;20046;-41
2022/11/16 00:44:09;;;;;;;5.43;3.78;;;11.60;99.90;;;;;;20619810;28;20148;-41
2022/11/16 00:54:10;;;;;;;6.97;4.38;;;11.60;99.90;;;;;;20633918;28;20046;-41
2022/11/16 01:04:11;;;;;;;5.75;2.97;;;11.60;99.90;;;;;;20642027;28;20034;-41
2022/11/16 01:14:12;;;;;;;7.70;4.63;;;11.70;99.90;;;;;;20642874;28;20053;-40
2022/11/16 01:24:13;;;;;;;8.13;4.75;;;11.70;99.90;;;;;;20630376;28;20117;-40
2022/11/16 01:34:14;;;;;;;6.70;4.10;;;11.70;99.90;;;;;;20626645;28;20050;-40
2022/11/16 01:44:30;;;;;;;8.05;4.75;;;11.70;99.90;;;;;;20567358;28;20039;-40
2022/11/16 01:54:33;;;;;;;10.63;4.90;;;11.70;99.90;;;;;;20544886;28;20122;-40
2022/11/16 02:04:34;;;;;;;8.38;4.47;;;11.70;99.90;;;;;;20569012;28;20101;-39
2022/11/16 02:14:53;;;;;;;7.28;4.70;;;11.80;99.90;;;;;;20561693;28;20053;-39
2022/11/16 02:25:14;;;;;;;7.30;4.60;;;11.70;99.90;;;;;;20552404;28;20660;-40
2022/11/16 02:35:20;;;;;;;5.70;3.70;;;11.70;99.90;;;;;;20562770;28;20077;-39
2022/11/16 02:45:24;;;;;;;7.07;3.72;;;11.80;99.90;;;;;;20591174;28;20108;-39
2022/11/16 02:55:27;;;;;;;7.40;4.32;;;11.70;99.90;;;;;;20606597;28;20074;-39
2022/11/16 03:05:37;;;;;;;5.82;3.78;;;11.70;99.90;;;;;;20599852;28;20058;-39
2022/11/16 03:15:41;;;;;;;5.85;3.53;;;11.70;99.90;;;;;;20600229;28;20058;-39
2022/11/16 03:25:49;;;;;;;9.10;4.00;;;11.70;99.90;;;;;;20592271;28;20517;-39
2022/11/16 03:36:17;;;;;;;5.45;2.83;;;11.60;99.90;;;;;;20596223;28;20967;-40
2022/11/16 03:46:19;;;;;;;7.50;3.63;;;11.50;99.90;;;;;;20596946;28;20502;-40
2022/11/16 03:56:20;;;;;;;7.50;4.07;;;11.50;99.90;;;;;;20597165;28;20449;-39
2022/11/16 04:47:44;;;;;;;4.95;2.90;;;11.20;99.90;;;;;;20611638;28;21794;-40
2022/11/16 04:57:45;;;;;;;5.35;3.83;;;11.20;99.90;;;;;;20621160;28;20047;-40
2022/11/16 05:07:46;;;;;;;11.55;4.75;;;11.20;99.90;;;;;;20615848;28;20053;-39
2022/11/16 05:17:47;;;;;;;5.30;3.38;;;11.10;99.90;;;;;;20618209;28;20482;-39
2022/11/16 05:27:48;;;;;;;10.00;4.35;;;11.00;99.90;;;;;;20627804;28;20042;-40
2022/11/16 05:37:49;;;;;;;4.78;3.03;;;11.00;99.90;;;;;;20629440;28;20046;-39
2022/11/16 05:47:50;;;;;;;13.75;5.53;;;10.90;99.90;;;;;;20627306;28;20045;-39
2022/11/16 05:57:51;;;;;;;6.75;4.20;;;10.90;99.90;;;;;;20625110;28;20053;-39
2022/11/16 06:07:52;;;;;;;5.82;2.78;;;10.70;99.90;;;;;;20619879;28;20699;-39
2022/11/16 06:17:53;;;;;;;4.95;2.35;;;10.60;99.90;;;;;;20622848;28;20076;-39
2022/11/16 06:27:54;;;;;;;4.82;1.63;;;10.60;99.90;;;;;;20612396;28;20503;-39
2022/11/16 06:37:56;;;;;;;5.63;2.92;;;10.40;99.90;;;;;;20629898;28;20544;-39
2022/11/16 06:47:57;;;;;;;6.72;2.47;;;10.20;99.90;;;;;;20614826;28;20157;-39
2022/11/16 06:57:59;;;;;;;5.00;2.03;;;10.10;99.90;;;;;;20619166;28;20080;-39
2022/11/16 07:08:00;;;;;;;3.95;2.22;;;10.00;99.90;;;;;;20615323;28;20181;-39
2022/11/16 07:18:03;;;;;;;5.75;2.50;;;9.80;99.90;;;;;;20622414;28;20050;-38
2022/11/16 07:28:05;;;;;;;3.50;2.17;;;9.70;99.90;;;;;;20604087;28;20711;-39
2022/11/16 07:38:06;;;;;;;5.80;3.20;;;9.60;99.90;;;;;;20614121;28;20153;-39
2022/11/16 07:48:07;;;;;;;28.85;2.70;;;9.50;99.90;;;;;;20594688;28;20045;-39
2022/11/16 07:58:08;;;;;;;3.95;2.10;;;9.40;99.90;;;;;;20599658;28;20720;-39
2022/11/16 08:08:10;;;;;;;5.25;2.33;;;9.40;99.90;;;;;;20595970;28;20043;-39
2022/11/16 08:18:11;;;;;;;5.40;1.90;;;9.40;99.90;;;;;;20591914;28;20177;-39
2022/11/16 08:28:13;;;;;;;5.65;1.65;;;9.50;99.90;;;;;;20598766;28;20046;-39
2022/11/16 08:38:14;;;;;;;3.40;1.65;;;9.60;99.90;;;;;;20597885;28;20451;-39
2022/11/16 08:48:15;;;;;;;8.13;1.73;;;9.60;99.90;;;;;;20633094;28;20040;-39
2022/11/16 08:58:16;;;;;;;5.60;1.90;;;9.70;99.90;;;;;;20611394;28;20069;-39
2022/11/16 09:08:17;;;;;;;16.38;2.95;;;9.80;99.90;;;;;;20633717;28;20034;-39
2022/11/16 09:18:18;;;;;;;2.88;1.05;;;10.00;99.90;;;;;;20574189;28;20134;-39
2022/11/16 09:28:20;;;;;;;2.45;1.33;;;10.00;99.90;;;;;;20625638;28;20076;-39
2022/11/16 09:38:21;;;;;;;7.63;1.38;;;10.20;99.90;;;;;;20627915;28;20164;-39
2022/11/16 09:48:23;;;;;;;10.23;2.78;;;10.20;99.90;;;;;;20596592;28;20133;-39
2022/11/16 09:58:49;;;;;;;4.68;1.98;;;10.30;99.90;;;;;;20591610;28;20275;-39
2022/11/16 10:08:52;;;;;;;2.72;1.35;;;10.50;99.90;;;;;;20588363;28;20275;-39
2022/11/16 10:19:05;;;;;;;3.80;2.30;;;10.70;99.90;;;;;;20557807;28;21322;-40
2022/11/16 10:29:34;;;;;;;2.10;1.25;;;11.00;99.90;;;;;;20596343;28;20753;-40
2022/11/16 10:39:39;;;;;;;4.78;1.52;;;11.10;99.90;;;;;;20574419;28;20710;-39
2022/11/16 10:49:50;;;;;;;2.42;1.02;;;11.50;99.90;;;;;;20610413;28;20038;-39
2022/11/16 10:59:54;;;;;;;5.55;1.50;;;11.70;99.90;;;;;;20597874;28;22308;-40
2022/11/16 11:09:55;;;;;;;1.60;0.75;;;12.40;99.90;;;;;;20593477;28;20049;-39
2022/11/16 11:20:03;;;;;;;3.58;0.88;;;12.60;99.90;;;;;;20628446;28;20042;-39
2022/11/16 11:30:05;;;;;;;2.75;0.60;;;13.20;99.90;;;;;;20625585;28;20054;-39
2022/11/16 11:40:08;;;;;;;4.45;0.80;;;13.70;99.90;;;;;;20626291;28;20183;-40
2022/11/16 11:50:15;;;;;;;3.97;0.63;;;13.50;99.90;;;;;;20626625;28;20132;-39
2022/11/16 12:00:17;;;;;;;2.63;1.25;;;13.60;99.90;;;;;;20569303;28;20683;-39
2022/11/16 12:10:27;;;;;;;2.13;0.70;;;12.80;99.90;;;;;;20594271;28;20046;-39
2022/11/16 12:21:00;;;;;;;2.10;1.35;;;12.20;99.90;;;;;;20588245;28;20631;-39
2022/11/16 12:31:37;;;;;;;1.60;0.60;;;12.50;99.90;;;;;;20596477;28;20903;-39
2022/11/16 12:42:17;;;;;;;5.70;1.23;;;13.70;99.90;;;;;;20596140;28;20131;-39
2022/11/16 12:52:49;;;;;;;1.70;0.75;;;13.60;99.90;;;;;;20603109;28;20193;-39
2022/11/16 13:03:19;;;;;;;2.28;1.40;;;14.20;99.90;;;;;;20585339;28;20889;-39
2022/11/16 13:13:30;;;;;;;2.75;0.65;;;13.50;99.90;;;;;;20570700;28;20176;-39
2022/11/16 13:23:50;;;;;;;1.48;0.60;;;13.30;99.90;;;;;;20603887;28;20133;-39
2022/11/16 13:34:02;;;;;;;2.10;0.85;;;13.00;99.90;;;;;;20611189;28;21820;-40
2022/11/16 13:44:11;;;;;;;1.45;0.47;;;12.40;99.90;;;;;;20584546;28;20133;-40
2022/11/16 13:54:12;;;;;;;1.05;0.40;;;12.10;99.90;;;;;;20580787;28;20054;-40
2022/11/16 14:04:37;;;;;;;1.92;0.47;;;12.10;99.90;;;;;;20586207;28;20044;-39
2022/11/16 14:15:02;;;;;;;3.75;1.52;;;12.10;99.90;;;;;;20583147;28;20426;-39
2022/11/16 14:25:41;;;;;;;4.25;1.50;;;11.90;99.90;;;;;;20585390;28;21762;-39
2022/11/16 14:35:49;;;;;;;0.98;0.40;;;11.80;99.90;;;;;;20562710;28;21103;-40
2022/11/16 14:46:18;;;;;;;1.35;0.80;;;11.80;99.90;;;;;;20582153;28;20808;-40
2022/11/16 14:56:19;;;;;;;2.30;0.80;;;11.80;99.90;;;;;;20573288;28;20128;-39
2022/11/16 15:06:21;;;;;;;1.60;1.13;;;11.80;99.90;;;;;;20594208;28;20050;-39
2022/11/16 15:16:22;;;;;;;2.22;0.60;;;11.90;99.90;;;;;;20595986;28;20176;-39
2022/11/16 15:26:23;;;;;;;3.92;1.52;;;11.80;99.90;;;;;;20594890;28;20057;-39
2022/11/16 15:36:31;;;;;;;1.83;0.75;;;11.80;99.90;;;;;;20605066;28;20050;-39
2022/11/16 15:46:34;;;;;;;3.80;1.13;;;11.70;99.90;;;;;;20602493;28;20238;-39
2022/11/16 15:56:35;;;;;;;3.83;1.60;;;11.60;99.90;;;;;;20589144;28;20497;-39
2022/11/16 16:06:59;;;;;;;2.97;0.85;;;11.40;99.90;;;;;;20590005;28;20447;-39
2022/11/16 16:17:00;;;;;;;6.93;2.15;;;11.30;99.90;;;;;;20589544;28;20865;-40
2022/11/16 16:27:01;;;;;;;2.33;0.90;;;11.20;99.90;;;;;;20579947;28;20057;-40
2022/11/16 16:37:02;;;;;;;4.53;2.20;;;11.10;99.90;;;;;;20610114;28;20370;-38
2022/11/16 16:47:03;;;;;;;3.63;1.15;;;11.00;99.90;;;;;;20619038;28;20045;-39
2022/11/16 16:57:04;;;;;;;5.03;1.98;;;11.00;99.90;;;;;;20614971;28;20218;-39
2022/11/16 17:07:05;;;;;;;7.30;2.40;;;10.80;99.90;;;;;;20621601;28;20080;-39
2022/11/16 17:17:06;;;;;;;2.33;1.20;;;10.70;99.90;;;;;;20627848;28;20179;-39
2022/11/16 17:27:08;;;;;;;3.13;1.17;;;10.70;99.90;;;;;;20627499;28;20049;-40
2022/11/16 17:37:08;;;;;;;2.85;1.20;;;10.60;99.90;;;;;;20631820;28;20179;-39
2022/11/16 17:47:10;;;;;;;3.55;1.40;;;10.50;99.90;;;;;;20616104;28;20066;-39
2022/11/16 17:57:10;;;;;;;5.40;2.70;;;10.50;99.90;;;;;;20606617;28;20617;-39
2022/11/16 18:07:12;;;;;;;5.00;1.85;;;10.40;99.90;;;;;;20615570;28;20502;-38
2022/11/16 18:17:12;;;;;;;4.05;1.10;;;10.50;99.90;;;;;;20599963;28;20182;-40
2022/11/16 18:27:14;;;;;;;3.60;1.95;;;10.40;99.90;;;;;;20598372;28;20300;-40
2022/11/16 18:37:15;;;;;;;2.00;1.02;;;10.40;99.90;;;;;;20609099;28;20505;-40
2022/11/16 18:47:16;;;;;;;1.58;0.65;;;10.30;99.90;;;;;;20616292;28;20387;-40
2022/11/16 18:57:17;;;;;;;3.03;1.30;;;10.40;99.90;;;;;;20615550;28;20054;-40
2022/11/16 19:07:18;;;;;;;2.58;1.23;;;10.50;99.90;;;;;;20622286;28;20217;-40
2022/11/16 19:17:23;;;;;;;2.53;0.80;;;10.50;99.90;;;;;;20615403;28;20640;-40
2022/11/16 19:27:24;;;;;;;3.65;1.42;;;10.40;99.90;;;;;;20603148;28;20043;-40
2022/11/16 19:37:25;;;;;;;1.75;1.15;;;10.50;99.90;;;;;;20637786;28;20038;-40
2022/11/16 19:47:26;;;;;;;1.67;0.73;;;10.60;99.90;;;;;;20633116;28;20229;-40
2022/11/16 19:57:27;;;;;;;2.80;1.33;;;10.60;99.90;;;;;;20641356;28;20038;-40
2022/11/16 20:07:28;;;;;;;2.65;0.73;;;10.70;99.90;;;;;;20629751;28;20233;-40
2022/11/16 20:17:29;;;;;;;2.47;1.00;;;10.70;99.90;;;;;;20610797;28;20459;-40
2022/11/16 20:27:30;;;;;;;1.90;1.33;;;10.60;99.90;;;;;;20610946;28;20106;-40
2022/11/16 20:37:31;;;;;;;2.15;0.85;;;10.60;99.90;;;;;;20646522;28;20332;-40
2022/11/16 20:47:32;;;;;;;1.73;0.95;;;10.50;99.90;;;;;;20676520;28;20382;-40
2022/11/16 20:57:33;;;;;;;3.65;1.55;;;10.50;99.90;;;;;;20649796;28;20053;-40
2022/11/16 21:07:34;;;;;;;4.05;1.05;;;10.50;99.90;;;;;;20653001;28;20072;-40
2022/11/16 21:17:35;;;;;;;2.22;1.45;;;10.60;99.90;;;;;;20644096;28;20038;-40
2022/11/16 21:27:36;;;;;;;4.03;0.80;;;10.50;99.90;;;;;;20646099;28;20041;-40
2022/11/16 21:37:37;;;;;;;1.65;0.68;;;10.50;99.90;;;;;;20637906;28;20084;-40
2022/11/16 21:47:38;;;;;;;1.75;0.80;;;10.70;99.90;;;;;;20613146;28;20042;-40
2022/11/16 21:57:39;;;;;;;4.07;1.15;;;10.80;99.90;;;;;;20606372;28;20061;-40
2022/11/16 22:07:41;;;;;;;0.98;0.50;;;10.90;99.90;;;;;;20612666;28;20058;-40
2022/11/16 22:17:42;;;;;;;1.98;0.77;;;11.00;99.90;;;;;;20618515;28;20124;-40
2022/11/16 22:27:48;;;;;;;2.08;0.60;;;11.10;99.90;;;;;;20606201;28;20046;-40
2022/11/16 22:37:49;;;;;;;1.92;1.00;;;11.10;99.90;;;;;;20617609;28;20129;-40
2022/11/16 22:47:53;;;;;;;1.20;0.45;;;11.00;99.90;;;;;;20615555;28;20113;-39
2022/11/16 22:57:54;;;;;;;4.30;0.68;;;10.80;99.90;;;;;;20629510;28;20081;-40
2022/11/16 23:07:56;;;;;;;2.15;1.02;;;10.50;99.90;;;;;;20623107;28;20041;-39
2022/11/16 23:17:57;;;;;;;1.42;0.63;;;10.30;99.90;;;;;;20627107;28;20112;-39
2022/11/16 23:27:57;;;;;;;2.03;0.60;;;10.20;99.90;;;;;;20612896;28;20132;-39
2022/11/16 23:38:06;;;;;;;4.20;0.95;;;10.10;99.90;;;;;;20620576;28;20055;-40
2022/11/16 23:48:09;;;;;;;2.28;1.10;;;10.10;99.90;;;;;;20623691;28;20068;-42
2022/11/16 23:58:12;;;;;;;2.58;0.65;;;9.90;99.90;;;;;;20607883;28;20417;-42
